Airport ICAO


20:15 UTC

23°C

Clear skies


An affordable passengers' Moving Map for your aircraft. Made for the iPad and the iPhone
More information here

EGKK Gatwick


London UNITED KINGDOM   VFR CAVOK


METAR EGKK 161950Z 24007KT CAVOK 23/11 Q1013 0h25min

TAF EGKK 161652Z 1618/1724 24008KT CAVOK 3h23min





NOTAMS

OPEN